Time;durP1;ratioP1;P1;durP2;ratioP2;P2;SDS_P1;SDS_P2;PMS_P1;PMS_P2;Temp;Humidity;BMP_temperature;BMP_pressure;BME280_temperature;BME280_humidity;BME280_pressure;Samples;Min_cycle;Max_cycle;Signal;HPM_P1;HPM_P2
2021/08/10 00:01:04;;;;;;;6.78;3.00;;;23.10;86.70;;;;;;4212218;28;20557;-74
2021/08/10 00:03:08;;;;;;;5.20;2.88;;;23.10;86.80;;;;;;4211935;28;20577;-73
2021/08/10 00:05:11;;;;;;;10.07;2.92;;;23.10;87.50;;;;;;4211832;28;20109;-73
2021/08/10 00:07:14;;;;;;;9.20;3.38;;;23.10;87.40;;;;;;4211811;28;20113;-72
2021/08/10 00:09:17;;;;;;;9.18;2.97;;;23.00;87.70;;;;;;4211966;28;20056;-73
2021/08/10 00:11:21;;;;;;;8.82;2.60;;;22.90;88.10;;;;;;4211721;28;20098;-73
2021/08/10 00:13:25;;;;;;;6.63;2.70;;;22.80;88.20;;;;;;4211937;28;20056;-73
2021/08/10 00:15:28;;;;;;;7.35;3.20;;;22.80;88.40;;;;;;4211703;28;20634;-72
2021/08/10 00:17:31;;;;;;;6.32;2.90;;;22.90;88.30;;;;;;4211821;28;20059;-72
2021/08/10 00:19:34;;;;;;;6.15;2.60;;;22.90;88.20;;;;;;4194202;28;20060;-73
2021/08/10 00:21:37;;;;;;;6.82;2.95;;;22.90;88.20;;;;;;4211769;28;20117;-73
2021/08/10 00:23:40;;;;;;;5.60;2.80;;;22.90;88.40;;;;;;4212005;28;20078;-72
2021/08/10 00:25:42;;;;;;;10.75;3.08;;;22.90;88.20;;;;;;4211626;28;20478;-73
2021/08/10 00:27:47;;;;;;;5.57;2.78;;;22.90;88.70;;;;;;4211729;28;20597;-73
2021/08/10 00:29:50;;;;;;;10.75;3.00;;;22.90;88.40;;;;;;4211803;28;20105;-72
2021/08/10 00:31:53;;;;;;;8.35;2.72;;;22.90;88.30;;;;;;4194310;28;20111;-72
2021/08/10 00:33:56;;;;;;;7.88;2.85;;;22.90;88.20;;;;;;4200550;28;20114;-73
2021/08/10 00:35:59;;;;;;;9.20;3.22;;;22.90;88.20;;;;;;4195042;28;20566;-73
2021/08/10 00:38:02;;;;;;;8.65;3.00;;;22.90;88.20;;;;;;4194869;28;20113;-71
2021/08/10 00:40:07;;;;;;;8.30;2.83;;;22.90;88.10;;;;;;4194031;28;20106;-72
2021/08/10 00:42:10;;;;;;;9.20;3.40;;;22.90;88.50;;;;;;4195138;28;20052;-72
2021/08/10 00:44:14;;;;;;;6.40;2.83;;;22.90;88.30;;;;;;4193886;28;20074;-71
2021/08/10 00:46:17;;;;;;;6.60;2.83;;;22.90;88.30;;;;;;4194849;28;20591;-72
2021/08/10 00:48:20;;;;;;;10.63;3.97;;;22.90;88.10;;;;;;4195235;28;20053;-72
2021/08/10 00:50:23;;;;;;;5.00;2.40;;;22.80;88.20;;;;;;4195018;28;20056;-73
2021/08/10 00:52:26;;;;;;;7.13;2.97;;;22.90;87.90;;;;;;4195043;28;20056;-71
2021/08/10 00:54:29;;;;;;;11.23;3.10;;;22.80;88.30;;;;;;4195060;28;20113;-70
2021/08/10 00:56:32;;;;;;;6.38;2.88;;;22.70;88.80;;;;;;4194782;28;20491;-72
2021/08/10 00:58:37;;;;;;;10.35;3.08;;;22.70;88.80;;;;;;4194848;28;20052;-71
2021/08/10 01:00:41;;;;;;;9.43;3.63;;;22.70;88.70;;;;;;4194784;28;20053;-70
2021/08/10 01:02:44;;;;;;;7.88;2.83;;;22.70;89.20;;;;;;4195488;28;20517;-71
2021/08/10 01:04:48;;;;;;;5.25;2.50;;;22.70;89.40;;;;;;4179927;28;20052;-70
2021/08/10 01:07:03;;;;;;;7.13;3.20;;;22.60;90.10;;;;;;4197821;28;20122;-70
2021/08/10 01:09:10;;;;;;;6.55;3.13;;;22.60;90.30;;;;;;4197997;28;20056;-70
2021/08/10 01:11:21;;;;;;;9.13;2.95;;;22.50;90.40;;;;;;4210012;28;20097;-70
2021/08/10 01:13:33;;;;;;;14.40;3.15;;;22.50;90.60;;;;;;4214483;28;20105;-71
2021/08/10 01:15:45;;;;;;;6.75;3.10;;;22.40;91.20;;;;;;4214232;28;20101;-73
2021/08/10 01:17:57;;;;;;;11.60;4.07;;;22.40;91.40;;;;;;4214318;28;20052;-70
2021/08/10 01:20:18;;;;;;;7.45;3.15;;;22.40;91.90;;;;;;4214352;28;20093;-70
2021/08/10 01:22:23;;;;;;;11.18;3.70;;;22.30;92.00;;;;;;4214341;28;20106;-70
2021/08/10 01:24:29;;;;;;;7.10;3.80;;;22.30;92.20;;;;;;4214283;28;20056;-72
2021/08/10 01:26:52;;;;;;;9.02;3.78;;;22.10;93.10;;;;;;4196344;28;20053;-70
2021/08/10 01:29:09;;;;;;;8.27;3.55;;;22.10;93.40;;;;;;4214523;28;20117;-71
2021/08/10 01:31:20;;;;;;;7.63;3.58;;;22.00;93.80;;;;;;4214007;28;20066;-73
2021/08/10 01:33:24;;;;;;;11.48;4.07;;;22.10;94.00;;;;;;4214045;28;20052;-73
2021/08/10 01:35:29;;;;;;;10.98;3.40;;;22.10;94.80;;;;;;4212944;28;20056;-72
2021/08/10 01:37:35;;;;;;;5.32;3.22;;;22.00;94.50;;;;;;4214099;28;20056;-72
2021/08/10 01:39:41;;;;;;;11.07;3.65;;;22.00;94.70;;;;;;4214772;28;20081;-71
2021/08/10 01:41:45;;;;;;;6.93;3.47;;;21.80;95.40;;;;;;4214245;28;20109;-70
2021/08/10 01:43:49;;;;;;;9.57;3.33;;;21.70;95.60;;;;;;4214224;28;20044;-71
2021/08/10 01:45:53;;;;;;;8.50;3.90;;;21.60;96.00;;;;;;4214115;28;20060;-73
2021/08/10 01:47:58;;;;;;;9.48;3.78;;;21.60;96.40;;;;;;4214024;28;20056;-70
2021/08/10 01:50:03;;;;;;;11.45;3.95;;;21.50;96.90;;;;;;4214055;28;20052;-72
2021/08/10 01:52:08;;;;;;;9.00;3.90;;;21.40;96.80;;;;;;4214027;28;20393;-73
2021/08/10 01:54:13;;;;;;;5.47;3.70;;;21.40;97.60;;;;;;4213879;28;20052;-70
2021/08/10 01:56:17;;;;;;;13.02;4.47;;;21.30;97.70;;;;;;4214229;28;20086;-72
2021/08/10 01:58:20;;;;;;;8.43;3.90;;;21.30;97.90;;;;;;4213942;28;20104;-71
2021/08/10 02:00:26;;;;;;;8.75;3.50;;;21.30;98.20;;;;;;4214096;28;20052;-71
2021/08/10 02:02:30;;;;;;;9.00;3.78;;;21.30;98.00;;;;;;4214069;28;20052;-73
2021/08/10 02:04:35;;;;;;;7.93;4.18;;;21.30;98.10;;;;;;4213959;28;20109;-72
2021/08/10 02:06:40;;;;;;;10.77;3.53;;;21.30;98.70;;;;;;4214084;28;20113;-74
2021/08/10 02:08:44;;;;;;;7.38;3.92;;;21.20;99.50;;;;;;4213844;28;20117;-73
2021/08/10 02:10:47;;;;;;;11.40;3.92;;;21.10;99.20;;;;;;4214115;28;20578;-74
2021/08/10 02:12:50;;;;;;;9.35;4.03;;;21.20;99.30;;;;;;4213830;28;20113;-72
2021/08/10 02:14:55;;;;;;;8.13;4.32;;;21.30;99.10;;;;;;4213000;28;20052;-71
2021/08/10 02:17:01;;;;;;;11.02;4.22;;;21.30;99.00;;;;;;4213724;28;20105;-73
2021/08/10 02:19:06;;;;;;;13.48;4.50;;;21.40;98.90;;;;;;4213780;28;20481;-70
2021/08/10 02:21:18;;;;;;;12.02;4.40;;;21.50;98.60;;;;;;4213607;28;20060;-73
2021/08/10 02:23:24;;;;;;;14.80;5.10;;;21.50;98.70;;;;;;4213526;28;20052;-72
2021/08/10 02:25:28;;;;;;;14.60;5.30;;;21.50;99.30;;;;;;4213462;28;20056;-71
2021/08/10 02:27:35;;;;;;;11.45;4.90;;;21.40;99.80;;;;;;4213542;28;20052;-72
2021/08/10 02:29:40;;;;;;;10.52;5.50;;;21.40;99.10;;;;;;4213214;28;20056;-73
2021/08/10 02:31:45;;;;;;;12.23;4.45;;;21.40;99.20;;;;;;4213445;28;20108;-73
2021/08/10 02:33:48;;;;;;;9.40;4.47;;;21.50;98.90;;;;;;4213107;28;20101;-69
2021/08/10 02:35:58;;;;;;;9.65;4.43;;;21.50;98.70;;;;;;4213081;28;20056;-71
2021/08/10 02:38:05;;;;;;;8.93;4.53;;;21.50;99.50;;;;;;4213157;28;20052;-69
2021/08/10 02:40:10;;;;;;;9.95;4.60;;;21.60;98.90;;;;;;4213610;28;20056;-73
2021/08/10 02:42:16;;;;;;;8.27;4.22;;;21.60;99.10;;;;;;4213081;28;20503;-72
2021/08/10 02:44:19;;;;;;;6.93;4.07;;;21.50;99.00;;;;;;4212982;28;20125;-71
2021/08/10 02:46:22;;;;;;;8.30;3.75;;;21.50;98.80;;;;;;4212726;28;20052;-71
2021/08/10 02:48:30;;;;;;;6.75;3.70;;;21.50;98.70;;;;;;4212885;28;20056;-72
2021/08/10 02:50:33;;;;;;;6.95;3.67;;;21.50;98.90;;;;;;4212848;28;20048;-72
2021/08/10 02:52:36;;;;;;;8.27;4.38;;;21.50;99.00;;;;;;4212711;28;20125;-71
2021/08/10 02:54:40;;;;;;;8.40;4.00;;;21.50;98.70;;;;;;4213132;28;20098;-71
2021/08/10 02:56:48;;;;;;;8.60;3.90;;;21.60;98.70;;;;;;4213129;28;20393;-71
2021/08/10 02:58:57;;;;;;;7.18;3.90;;;21.60;98.60;;;;;;4213021;28;20052;-72
2021/08/10 03:01:02;;;;;;;8.10;4.05;;;21.60;98.50;;;;;;4212906;28;20565;-72
2021/08/10 03:03:09;;;;;;;6.65;3.65;;;21.50;99.10;;;;;;4212905;28;20056;-71
2021/08/10 03:05:15;;;;;;;5.68;3.53;;;21.50;98.50;;;;;;4212882;28;20052;-71
2021/08/10 03:07:19;;;;;;;9.15;3.90;;;21.50;98.70;;;;;;4211433;28;20439;-73
2021/08/10 03:09:22;;;;;;;10.60;3.92;;;21.50;98.30;;;;;;4212733;28;20043;-71
2021/08/10 03:11:32;;;;;;;9.85;3.78;;;21.50;98.30;;;;;;4212568;28;20109;-72
2021/08/10 03:13:37;;;;;;;7.82;4.10;;;21.50;98.00;;;;;;4212694;28;20048;-69
2021/08/10 03:15:43;;;;;;;7.07;4.25;;;21.50;98.80;;;;;;4212447;28;20113;-71
2021/08/10 03:17:47;;;;;;;9.57;4.00;;;21.50;98.60;;;;;;4212642;28;20408;-72
2021/08/10 03:19:52;;;;;;;8.38;3.90;;;21.50;98.60;;;;;;4212867;28;20060;-70
2021/08/10 03:21:56;;;;;;;7.00;3.55;;;21.50;98.50;;;;;;4212686;28;20052;-70
2021/08/10 03:24:02;;;;;;;7.88;3.80;;;21.50;98.40;;;;;;4212599;28;20055;-72
2021/08/10 03:26:07;;;;;;;11.18;4.07;;;21.40;98.40;;;;;;4211971;28;20455;-73
2021/08/10 03:28:13;;;;;;;6.82;3.53;;;21.30;98.70;;;;;;4212748;28;20051;-72
2021/08/10 03:30:17;;;;;;;8.32;4.13;;;21.30;98.70;;;;;;4212657;28;20055;-72
2021/08/10 03:32:21;;;;;;;7.32;4.18;;;21.30;99.20;;;;;;4212396;28;20059;-73
2021/08/10 03:34:24;;;;;;;8.52;4.00;;;21.30;98.70;;;;;;4197843;28;20060;-72
2021/08/10 03:36:27;;;;;;;6.70;4.20;;;21.40;98.90;;;;;;4194442;28;20118;-72
2021/08/10 03:38:31;;;;;;;7.60;4.22;;;21.20;99.60;;;;;;4195607;28;20048;-69
2021/08/10 03:40:34;;;;;;;6.03;3.80;;;21.30;98.90;;;;;;4195781;28;20122;-72
2021/08/10 03:42:38;;;;;;;8.02;4.00;;;21.30;98.60;;;;;;4195671;28;20053;-73
2021/08/10 03:44:43;;;;;;;8.73;4.00;;;21.30;98.60;;;;;;4195728;28;20060;-71
2021/08/10 03:46:47;;;;;;;9.57;4.60;;;21.40;98.70;;;;;;4195550;28;20118;-73
2021/08/10 03:48:50;;;;;;;8.85;3.63;;;21.40;98.90;;;;;;4195487;28;20052;-72
2021/08/10 03:50:55;;;;;;;8.68;4.43;;;21.30;98.60;;;;;;4195343;28;20048;-73
2021/08/10 03:52:58;;;;;;;9.73;4.18;;;21.40;98.80;;;;;;4195422;28;20467;-73
2021/08/10 03:55:01;;;;;;;7.35;3.83;;;21.40;98.40;;;;;;4195306;28;20056;-71
2021/08/10 03:57:06;;;;;;;8.30;3.60;;;21.40;98.70;;;;;;4195429;28;20061;-72
2021/08/10 03:59:10;;;;;;;9.40;4.47;;;21.40;98.60;;;;;;4195104;28;20109;-73
2021/08/10 04:01:15;;;;;;;8.38;4.18;;;21.40;98.70;;;;;;4195173;28;20129;-72
2021/08/10 04:03:19;;;;;;;7.88;4.00;;;21.40;98.40;;;;;;4195455;28;20053;-72
2021/08/10 04:05:23;;;;;;;5.70;4.00;;;21.30;98.40;;;;;;4195275;28;20118;-72
2021/08/10 04:07:29;;;;;;;12.45;5.30;;;21.30;98.50;;;;;;4195309;28;20493;-71
2021/08/10 04:09:33;;;;;;;7.85;4.20;;;21.40;98.80;;;;;;4177379;28;20107;-71
2021/08/10 04:11:38;;;;;;;11.50;4.95;;;21.40;98.40;;;;;;4210535;28;20052;-74
2021/08/10 04:13:40;;;;;;;;;;;21.30;98.70;;;;;;4212850;28;20117;-71
2021/08/10 04:15:45;;;;;;;8.63;4.30;;;21.30;98.30;;;;;;4193885;28;19966;-71
2021/08/10 04:17:51;;;;;;;8.40;4.15;;;21.30;98.70;;;;;;4211769;28;20524;-70
2021/08/10 04:19:56;;;;;;;9.98;4.53;;;21.30;98.60;;;;;;4211726;28;20508;-69
2021/08/10 04:21:59;;;;;;;8.55;4.40;;;21.20;98.50;;;;;;4211903;28;20075;-71
2021/08/10 04:24:05;;;;;;;6.70;4.07;;;21.20;98.50;;;;;;4211985;28;20097;-70
2021/08/10 04:26:08;;;;;;;8.30;4.55;;;21.30;98.60;;;;;;4193786;28;20715;-70
2021/08/10 04:28:12;;;;;;;8.82;4.10;;;21.30;99.00;;;;;;4211676;28;20531;-71
2021/08/10 04:30:15;;;;;;;6.28;4.03;;;21.20;98.50;;;;;;4212117;28;20485;-73
2021/08/10 04:32:17;;;;;;;6.38;4.20;;;21.30;98.60;;;;;;4211636;28;20136;-69
2021/08/10 04:34:22;;;;;;;12.40;4.13;;;21.30;98.60;;;;;;4211507;28;20048;-72
2021/08/10 04:36:25;;;;;;;6.57;5.03;;;21.30;98.80;;;;;;4211528;28;20060;-68
2021/08/10 04:38:27;;;;;;;7.65;4.07;;;21.30;98.80;;;;;;4213903;28;20048;-71
2021/08/10 04:40:31;;;;;;;9.25;4.13;;;21.30;98.50;;;;;;4215298;28;20113;-73
2021/08/10 04:42:34;;;;;;;8.73;4.47;;;21.30;98.70;;;;;;4215163;28;20098;-71
2021/08/10 04:44:37;;;;;;;7.60;4.25;;;21.30;98.60;;;;;;4214825;28;20055;-72
2021/08/10 04:46:40;;;;;;;8.95;4.20;;;21.30;98.50;;;;;;4214739;28;20077;-71
2021/08/10 04:48:43;;;;;;;11.57;4.78;;;21.30;98.70;;;;;;4215189;28;20102;-75
2021/08/10 04:50:47;;;;;;;9.13;4.50;;;21.30;98.70;;;;;;4215083;28;20059;-71
2021/08/10 04:52:50;;;;;;;6.45;4.28;;;21.30;98.60;;;;;;4214820;28;20117;-69
2021/08/10 04:54:57;;;;;;;7.72;3.75;;;21.30;98.80;;;;;;4215119;28;20052;-72
2021/08/10 04:57:00;;;;;;;7.43;4.47;;;21.30;98.60;;;;;;4215055;28;20097;-71
2021/08/10 04:59:03;;;;;;;8.93;4.70;;;21.30;98.80;;;;;;4214862;28;20673;-70
2021/08/10 05:01:06;;;;;;;7.88;4.05;;;21.30;98.80;;;;;;4214765;28;20056;-70
2021/08/10 05:03:09;;;;;;;7.93;4.47;;;21.30;98.70;;;;;;4214890;28;20044;-72
2021/08/10 05:05:12;;;;;;;8.38;4.85;;;21.30;98.80;;;;;;4214814;28;20129;-70
2021/08/10 05:07:17;;;;;;;7.45;4.90;;;21.30;98.80;;;;;;4213467;28;20121;-71
2021/08/10 05:09:20;;;;;;;12.77;5.50;;;21.30;98.90;;;;;;4214576;28;20523;-70
2021/08/10 05:11:23;;;;;;;9.50;4.75;;;21.20;99.70;;;;;;4214427;28;20060;-71
2021/08/10 05:13:25;;;;;;;8.57;4.43;;;21.20;99.80;;;;;;4214571;28;20052;-72
2021/08/10 05:15:28;;;;;;;11.57;4.60;;;21.20;99.80;;;;;;4214316;28;20113;-72
2021/08/10 05:17:31;;;;;;;8.07;4.38;;;21.20;99.60;;;;;;4214611;28;20113;-72
2021/08/10 05:19:34;;;;;;;12.40;4.70;;;21.20;99.40;;;;;;4214725;28;20109;-69
2021/08/10 05:21:37;;;;;;;8.73;4.20;;;21.30;99.40;;;;;;4214481;28;20480;-70
2021/08/10 05:23:42;;;;;;;7.90;3.92;;;21.30;99.20;;;;;;4214647;28;20052;-70
2021/08/10 05:25:44;;;;;;;8.48;3.75;;;21.30;99.30;;;;;;4214863;28;20101;-71
2021/08/10 05:27:48;;;;;;;7.90;4.88;;;21.30;99.10;;;;;;4214604;28;20600;-70
2021/08/10 05:29:50;;;;;;;7.53;4.20;;;21.30;99.30;;;;;;4214498;28;20105;-69
2021/08/10 05:31:53;;;;;;;8.20;4.45;;;21.30;99.00;;;;;;4214262;28;20060;-70
2021/08/10 05:33:56;;;;;;;7.65;4.13;;;21.40;99.10;;;;;;4203452;28;20593;-70
2021/08/10 05:35:59;;;;;;;9.38;3.97;;;21.40;99.30;;;;;;4197660;28;20056;-70
2021/08/10 05:38:02;;;;;;;13.00;4.70;;;21.30;99.40;;;;;;4197368;28;20040;-70
2021/08/10 05:40:08;;;;;;;7.20;4.13;;;21.30;99.60;;;;;;4197679;28;20585;-70
2021/08/10 05:42:11;;;;;;;7.20;4.38;;;21.30;99.60;;;;;;4197541;28;20048;-71
2021/08/10 05:44:15;;;;;;;9.45;4.43;;;21.20;99.90;;;;;;4197278;28;20060;-69
2021/08/10 05:46:18;;;;;;;10.95;4.60;;;21.20;99.90;;;;;;4197393;28;20578;-70
2021/08/10 05:48:23;;;;;;;7.28;4.07;;;21.10;99.90;;;;;;4196886;28;20056;-70
2021/08/10 05:50:25;;;;;;;;;;;21.00;99.90;;;;;;4198037;28;20455;-71
2021/08/10 05:52:29;;;;;;;10.23;4.45;;;21.10;99.90;;;;;;4197488;28;20445;-70
2021/08/10 05:54:32;;;;;;;12.25;4.82;;;21.10;99.90;;;;;;4197218;28;20619;-70
2021/08/10 05:56:36;;;;;;;10.43;4.30;;;21.10;99.90;;;;;;4197188;28;20102;-70
2021/08/10 05:58:39;;;;;;;11.70;4.28;;;21.10;99.90;;;;;;4197285;28;20090;-70
2021/08/10 06:00:42;;;;;;;10.90;4.35;;;21.10;99.90;;;;;;4197013;28;20053;-70
2021/08/10 06:02:45;;;;;;;6.07;3.80;;;21.10;99.90;;;;;;4196884;28;20040;-71
2021/08/10 06:04:49;;;;;;;9.85;4.10;;;21.20;99.90;;;;;;4197434;28;20045;-70
2021/08/10 06:06:52;;;;;;;8.73;4.60;;;21.20;99.90;;;;;;4197041;28;20473;-70
2021/08/10 06:08:55;;;;;;;8.95;4.30;;;21.20;99.90;;;;;;4197217;28;20106;-72
2021/08/10 06:10:58;;;;;;;7.18;4.15;;;21.20;99.90;;;;;;4206672;28;20052;-73
2021/08/10 06:13:02;;;;;;;8.80;4.70;;;21.20;99.90;;;;;;4213899;28;20133;-72
2021/08/10 06:15:06;;;;;;;8.43;4.28;;;21.30;99.90;;;;;;4213550;28;20657;-71
2021/08/10 06:17:09;;;;;;;7.45;4.20;;;21.30;99.90;;;;;;4213820;28;20052;-71
2021/08/10 06:19:12;;;;;;;6.35;3.65;;;21.30;99.90;;;;;;4213658;28;20056;-71
2021/08/10 06:21:15;;;;;;;10.05;4.75;;;21.40;99.90;;;;;;4195921;28;20158;-72
2021/08/10 06:23:18;;;;;;;13.73;4.22;;;21.50;99.90;;;;;;4213305;28;20060;-71
2021/08/10 06:25:21;;;;;;;8.18;4.10;;;21.40;99.90;;;;;;4213181;28;20044;-73
2021/08/10 06:27:24;;;;;;;9.52;4.38;;;21.50;99.90;;;;;;4213287;28;20113;-71
2021/08/10 06:29:29;;;;;;;7.18;3.85;;;21.40;99.90;;;;;;4195362;28;20487;-71
2021/08/10 06:31:32;;;;;;;8.32;3.90;;;21.50;99.90;;;;;;4213269;28;20060;-71
2021/08/10 06:33:35;;;;;;;7.60;3.95;;;21.50;99.80;;;;;;4213243;28;20113;-70
2021/08/10 06:35:38;;;;;;;7.60;3.90;;;21.60;99.80;;;;;;4213062;28;20485;-72
2021/08/10 06:37:41;;;;;;;7.97;3.85;;;21.70;99.70;;;;;;4213247;28;20052;-71
2021/08/10 06:39:43;;;;;;;7.30;4.20;;;21.70;99.80;;;;;;4213300;28;20106;-71
2021/08/10 06:41:46;;;;;;;9.90;4.25;;;21.70;99.50;;;;;;4213433;28;20455;-72
2021/08/10 06:43:49;;;;;;;7.22;3.88;;;21.80;99.70;;;;;;4213370;28;20137;-71
2021/08/10 06:45:54;;;;;;;7.25;3.95;;;21.80;99.80;;;;;;4213085;28;20105;-72
2021/08/10 06:47:57;;;;;;;7.20;3.83;;;21.80;99.60;;;;;;4213425;28;20056;-72
2021/08/10 06:50:00;;;;;;;8.27;4.10;;;21.80;99.50;;;;;;4213208;28;20107;-72
2021/08/10 06:52:08;;;;;;;9.32;3.95;;;21.80;99.70;;;;;;4213458;28;20165;-71
2021/08/10 06:54:11;;;;;;;4.93;3.37;;;21.90;99.50;;;;;;4213415;28;20044;-71
2021/08/10 06:56:14;;;;;;;9.35;4.50;;;21.90;99.20;;;;;;4213113;28;20098;-71
2021/08/10 06:58:17;;;;;;;9.27;3.45;;;21.90;99.30;;;;;;4213150;28;20082;-71
2021/08/10 07:00:20;;;;;;;6.57;3.40;;;21.90;99.20;;;;;;4212034;28;20052;-71
2021/08/10 07:02:24;;;;;;;6.82;3.38;;;21.90;99.20;;;;;;4212669;28;20056;-71
2021/08/10 07:04:27;;;;;;;9.10;3.88;;;21.90;99.30;;;;;;4212598;28;20092;-72
2021/08/10 07:06:31;;;;;;;6.10;3.47;;;21.90;99.20;;;;;;4212847;28;20052;-72
2021/08/10 07:08:33;;;;;;;8.77;3.55;;;21.90;99.00;;;;;;4212676;28;20511;-71
2021/08/10 07:10:36;;;;;;;11.00;4.25;;;22.00;98.90;;;;;;4212699;28;20476;-72
2021/08/10 07:12:39;;;;;;;8.95;3.55;;;22.00;99.10;;;;;;4212885;28;20106;-71
2021/08/10 07:14:42;;;;;;;7.05;3.70;;;22.00;99.20;;;;;;4194761;28;20485;-71
2021/08/10 07:16:46;;;;;;;9.63;3.38;;;22.00;99.20;;;;;;4212469;28;20117;-72
2021/08/10 07:18:50;;;;;;;9.68;3.47;;;22.00;99.00;;;;;;4212528;28;20056;-71
2021/08/10 07:20:53;;;;;;;6.03;3.28;;;22.00;98.70;;;;;;4212338;28;20056;-71
2021/08/10 07:22:56;;;;;;;11.45;3.38;;;22.00;98.60;;;;;;4212425;28;20056;-71
2021/08/10 07:24:59;;;;;;;9.20;3.70;;;22.00;98.80;;;;;;4212375;28;20048;-71
2021/08/10 07:27:02;;;;;;;9.68;3.55;;;22.00;98.80;;;;;;4212647;28;20048;-71
2021/08/10 07:29:05;;;;;;;10.48;3.65;;;22.00;98.70;;;;;;4212498;28;20051;-73
2021/08/10 07:31:08;;;;;;;10.85;3.97;;;21.90;98.70;;;;;;4212117;28;20558;-72
2021/08/10 07:33:11;;;;;;;8.77;3.30;;;22.00;98.70;;;;;;4207676;28;20464;-71
2021/08/10 07:35:15;;;;;;;8.13;3.08;;;21.90;98.60;;;;;;4195644;28;20402;-71
2021/08/10 07:37:18;;;;;;;11.18;3.33;;;21.90;98.40;;;;;;4195825;28;20122;-72
2021/08/10 07:39:21;;;;;;;10.73;3.53;;;22.00;98.50;;;;;;4195290;28;20053;-72
2021/08/10 07:41:24;;;;;;;6.28;3.03;;;22.00;98.40;;;;;;4195596;28;20060;-72
2021/08/10 07:43:27;;;;;;;4.20;2.80;;;22.10;98.00;;;;;;4195586;28;20052;-73
2021/08/10 07:45:30;;;;;;;5.38;2.75;;;22.20;97.90;;;;;;4177754;28;20066;-72
2021/08/10 07:47:33;;;;;;;7.93;3.28;;;22.40;97.50;;;;;;4195505;28;20053;-72
2021/08/10 07:49:36;;;;;;;7.05;3.90;;;22.50;97.00;;;;;;4195354;28;20060;-71
2021/08/10 07:51:40;;;;;;;8.45;3.65;;;22.50;97.70;;;;;;4195365;28;20137;-71
2021/08/10 07:53:43;;;;;;;5.18;3.30;;;22.50;97.80;;;;;;4195626;28;20053;-73
2021/08/10 07:55:46;;;;;;;7.00;3.33;;;22.50;97.70;;;;;;4195520;28;20493;-72
2021/08/10 07:57:49;;;;;;;8.07;3.95;;;22.40;97.90;;;;;;4195374;28;20090;-71
2021/08/10 07:59:52;;;;;;;8.02;3.85;;;22.40;98.00;;;;;;4195461;28;20066;-71
2021/08/10 08:01:55;;;;;;;7.47;3.80;;;22.50;98.10;;;;;;4195510;28;20501;-71
2021/08/10 08:03:58;;;;;;;5.65;3.20;;;22.40;98.00;;;;;;4177734;28;20053;-71
2021/08/10 08:06:01;;;;;;;6.43;3.33;;;22.40;98.00;;;;;;4177545;28;20112;-71
2021/08/10 08:08:06;;;;;;;7.82;3.35;;;22.60;98.00;;;;;;4195272;28;20056;-72
2021/08/10 08:10:10;;;;;;;8.90;3.30;;;22.70;97.60;;;;;;4198315;28;20036;-70
2021/08/10 08:12:12;;;;;;;9.70;3.40;;;22.70;97.80;;;;;;4211669;28;20482;-71
2021/08/10 08:14:19;;;;;;;10.23;3.53;;;22.70;97.70;;;;;;4211941;28;20055;-71
2021/08/10 08:16:22;;;;;;;4.93;3.60;;;22.60;97.20;;;;;;4211658;28;20048;-72
2021/08/10 08:18:25;;;;;;;8.88;3.72;;;22.60;97.10;;;;;;4211993;28;20479;-71
2021/08/10 08:20:28;;;;;;;9.98;3.80;;;22.70;97.10;;;;;;4212146;28;20048;-73
2021/08/10 08:22:31;;;;;;;8.63;3.83;;;22.70;97.40;;;;;;4212052;28;20478;-72
2021/08/10 08:24:35;;;;;;;7.03;3.08;;;22.70;97.50;;;;;;4212099;28;20052;-71
2021/08/10 08:26:38;;;;;;;9.93;3.35;;;22.80;97.50;;;;;;4211798;28;20082;-72
2021/08/10 08:28:41;;;;;;;9.23;3.90;;;22.90;97.40;;;;;;4194110;28;20049;-71
2021/08/10 08:30:44;;;;;;;8.25;4.07;;;23.10;97.10;;;;;;4211981;28;20052;-71
2021/08/10 08:32:47;;;;;;;12.82;3.33;;;23.20;97.00;;;;;;4211858;28;20048;-71
2021/08/10 08:34:51;;;;;;;9.50;3.63;;;23.20;96.90;;;;;;4211861;28;20492;-72
2021/08/10 08:36:54;;;;;;;12.25;3.67;;;23.10;97.30;;;;;;4212244;28;20128;-72
2021/08/10 08:38:56;;;;;;;7.50;3.35;;;23.10;97.30;;;;;;4212214;28;20070;-72
2021/08/10 08:41:01;;;;;;;12.73;3.80;;;23.20;97.10;;;;;;4211748;28;20156;-73
2021/08/10 08:43:04;;;;;;;12.50;4.07;;;23.30;96.50;;;;;;4211765;28;20408;-71
2021/08/10 08:45:08;;;;;;;11.30;3.92;;;23.40;96.70;;;;;;4211835;28;20051;-73
2021/08/10 08:47:11;;;;;;;9.50;3.47;;;23.40;96.90;;;;;;4211856;28;20473;-71
2021/08/10 08:49:15;;;;;;;8.18;3.53;;;23.50;96.50;;;;;;4211470;28;20074;-72
2021/08/10 08:51:24;;;;;;;10.52;3.63;;;23.50;96.30;;;;;;4211545;28;20048;-73
2021/08/10 08:53:27;;;;;;;8.93;3.00;;;23.50;96.30;;;;;;4211636;28;20086;-69
2021/08/10 08:55:30;;;;;;;9.25;3.63;;;23.60;96.40;;;;;;4211487;28;20488;-72
2021/08/10 08:57:35;;;;;;;8.00;3.25;;;23.70;96.40;;;;;;4211389;28;20055;-71
2021/08/10 08:59:40;;;;;;;10.93;3.42;;;23.90;96.10;;;;;;4211553;28;20056;-71
2021/08/10 09:01:43;;;;;;;7.63;3.35;;;23.90;96.00;;;;;;4211468;28;20056;-69
2021/08/10 09:03:47;;;;;;;10.98;3.80;;;23.90;96.10;;;;;;4211975;28;20572;-71
2021/08/10 09:05:50;;;;;;;8.70;3.08;;;23.90;96.00;;;;;;4211922;28;20040;-72
2021/08/10 09:07:58;;;;;;;9.85;3.70;;;23.90;95.90;;;;;;4211439;28;20056;-72
2021/08/10 09:10:06;;;;;;;12.98;3.58;;;23.90;95.50;;;;;;4211589;28;20060;-71
2021/08/10 09:12:11;;;;;;;7.20;3.20;;;23.80;95.70;;;;;;4211642;28;20114;-71
2021/08/10 09:14:15;;;;;;;8.32;3.35;;;23.70;95.70;;;;;;4211710;28;20056;-72
2021/08/10 09:16:20;;;;;;;9.63;3.20;;;23.60;95.00;;;;;;4211674;28;20059;-71
2021/08/10 09:18:23;;;;;;;12.27;3.20;;;23.80;95.50;;;;;;4211715;28;20052;-72
2021/08/10 09:20:26;;;;;;;10.77;2.95;;;23.90;95.20;;;;;;4211740;28;20480;-71
2021/08/10 09:22:31;;;;;;;9.35;2.75;;;23.80;95.50;;;;;;4211513;28;20044;-72
2021/08/10 09:24:42;;;;;;;6.15;3.05;;;23.90;94.90;;;;;;4195733;28;20052;-71
2021/08/10 09:26:45;;;;;;;6.90;3.20;;;24.00;95.30;;;;;;4214404;28;20052;-72
2021/08/10 09:28:49;;;;;;;11.02;3.08;;;23.90;94.90;;;;;;4214413;28;20060;-71
2021/08/10 09:30:54;;;;;;;7.97;3.53;;;24.00;95.30;;;;;;4214565;28;20051;-71
2021/08/10 09:33:00;;;;;;;10.50;3.42;;;24.30;95.30;;;;;;4211737;28;20109;-73
2021/08/10 09:35:07;;;;;;;9.32;3.22;;;24.30;94.90;;;;;;4197471;28;20057;-72
2021/08/10 09:37:14;;;;;;;8.90;3.67;;;24.40;94.70;;;;;;4197746;28;20471;-72
2021/08/10 09:39:27;;;;;;;10.07;3.20;;;24.40;94.70;;;;;;4197672;28;20134;-72
2021/08/10 09:41:31;;;;;;;11.50;3.30;;;24.50;94.50;;;;;;4197551;28;20052;-72
2021/08/10 09:43:35;;;;;;;8.48;2.97;;;24.40;94.50;;;;;;4197422;28;20106;-72
2021/08/10 09:45:38;;;;;;;5.28;2.80;;;24.40;94.20;;;;;;4197303;28;20118;-72
2021/08/10 09:47:43;;;;;;;6.70;3.05;;;24.50;93.60;;;;;;4197423;28;20492;-72
2021/08/10 09:49:46;;;;;;;5.97;2.70;;;24.40;93.30;;;;;;4197370;28;20094;-72
2021/08/10 09:51:50;;;;;;;15.25;3.05;;;24.30;92.50;;;;;;4197247;28;20566;-72
2021/08/10 09:53:56;;;;;;;6.10;2.42;;;24.10;93.60;;;;;;4197885;28;20045;-70
2021/08/10 09:55:59;;;;;;;8.73;2.95;;;24.00;93.40;;;;;;4197774;28;20060;-70
2021/08/10 09:58:04;;;;;;;10.30;2.90;;;24.00;92.00;;;;;;4197991;28;20519;-70
2021/08/10 10:00:08;;;;;;;4.78;2.25;;;23.90;92.40;;;;;;4198016;28;20114;-70
2021/08/10 10:02:17;;;;;;;6.50;2.67;;;24.00;92.20;;;;;;4200485;28;20105;-70
2021/08/10 10:04:24;;;;;;;7.25;2.50;;;24.20;92.40;;;;;;4199269;28;20351;-70
2021/08/10 10:06:31;;;;;;;11.23;3.10;;;24.20;92.30;;;;;;4200927;28;20344;-71
2021/08/10 10:08:34;;;;;;;10.35;2.75;;;24.30;91.90;;;;;;4200240;28;20056;-71
2021/08/10 10:10:37;;;;;;;6.50;2.80;;;24.60;92.00;;;;;;4203956;28;20059;-71
2021/08/10 10:12:41;;;;;;;7.15;2.60;;;24.50;91.10;;;;;;4213898;28;20086;-70
2021/08/10 10:14:46;;;;;;;10.83;3.20;;;24.60;91.70;;;;;;4213608;28;20048;-71
2021/08/10 10:16:51;;;;;;;6.60;2.45;;;24.70;91.70;;;;;;4213362;28;20425;-72
2021/08/10 10:18:55;;;;;;;6.63;2.50;;;24.50;91.10;;;;;;4213627;28;20067;-71
2021/08/10 10:20:59;;;;;;;8.02;2.47;;;24.60;91.20;;;;;;4195775;28;20118;-73
2021/08/10 10:23:04;;;;;;;6.93;2.55;;;24.60;90.90;;;;;;4213557;28;20052;-71
2021/08/10 10:25:08;;;;;;;5.40;2.30;;;24.60;91.30;;;;;;4213712;28;20048;-73
2021/08/10 10:27:12;;;;;;;4.28;2.55;;;24.80;91.30;;;;;;4213586;28;20651;-72
2021/08/10 10:29:16;;;;;;;6.50;2.80;;;24.70;90.40;;;;;;4213693;28;20455;-75
2021/08/10 10:31:19;;;;;;;7.05;2.50;;;24.60;90.30;;;;;;4213668;28;20128;-75
2021/08/10 10:33:22;;;;;;;6.57;2.50;;;24.70;90.90;;;;;;4209734;28;20048;-74
2021/08/10 10:35:26;;;;;;;4.68;2.72;;;24.90;91.20;;;;;;4198908;28;20534;-73
2021/08/10 10:37:31;;;;;;;6.95;2.20;;;24.80;90.50;;;;;;4197130;28;20060;-74
2021/08/10 10:39:39;;;;;;;6.55;2.42;;;24.80;90.50;;;;;;4201608;28;20049;-72
2021/08/10 10:41:45;;;;;;;7.25;2.50;;;24.90;90.80;;;;;;4195212;28;20052;-71
2021/08/10 10:43:51;;;;;;;4.00;2.40;;;24.90;90.70;;;;;;4195779;28;20044;-70
2021/08/10 10:45:55;;;;;;;3.08;2.20;;;25.00;90.40;;;;;;4195153;28;20587;-71